createdAt,value
2023-04-25T00:00:08.013Z,99.90
2023-04-25T00:02:41.557Z,99.90
2023-04-25T00:05:09.387Z,99.90
2023-04-25T00:07:36.726Z,99.90
2023-04-25T00:10:04.550Z,99.90
2023-04-25T00:12:32.256Z,99.90
2023-04-25T00:15:01.065Z,99.90
2023-04-25T00:17:33.435Z,99.90
2023-04-25T00:20:01.072Z,99.90
2023-04-25T00:22:28.514Z,99.90
2023-04-25T00:24:58.250Z,99.90
2023-04-25T00:27:25.402Z,99.90
2023-04-25T00:29:52.756Z,99.90
2023-04-25T00:32:20.541Z,99.90
2023-04-25T00:34:47.933Z,99.90
2023-04-25T00:37:15.489Z,99.90
2023-04-25T00:39:44.775Z,99.90
2023-04-25T00:42:12.825Z,99.90
2023-04-25T00:44:41.176Z,99.90
2023-04-25T00:47:09.089Z,99.90
2023-04-25T00:49:36.631Z,99.90
2023-04-25T00:52:04.059Z,99.90
2023-04-25T00:54:31.804Z,99.90
2023-04-25T00:56:59.814Z,99.90
2023-04-25T00:59:28.282Z,99.90
2023-04-25T01:01:56.034Z,99.90
2023-04-25T01:04:23.660Z,99.90
2023-04-25T01:06:51.267Z,99.90
2023-04-25T01:09:20.601Z,99.90
2023-04-25T01:11:47.876Z,99.90
2023-04-25T01:14:15.024Z,99.90
2023-04-25T01:16:42.582Z,99.90
2023-04-25T01:19:14.647Z,99.90
2023-04-25T01:21:42.272Z,99.90
2023-04-25T01:24:09.589Z,99.90
2023-04-25T01:26:37.538Z,99.90
2023-04-25T01:29:06.015Z,99.90
2023-04-25T01:31:34.186Z,99.90
2023-04-25T01:34:01.476Z,99.90
2023-04-25T01:36:30.131Z,99.90
2023-04-25T01:38:57.983Z,99.90
2023-04-25T01:41:25.968Z,99.90
2023-04-25T01:43:53.587Z,99.90
2023-04-25T01:46:21.358Z,99.90
2023-04-25T01:48:48.784Z,99.90
2023-04-25T01:51:16.778Z,99.90
2023-04-25T01:53:44.581Z,99.90
2023-04-25T01:56:12.349Z,99.90
2023-04-25T01:58:40.372Z,99.90
2023-04-25T02:01:34.319Z,99.90
2023-04-25T02:04:15.630Z,99.90
2023-04-25T02:06:43.161Z,99.90
2023-04-25T02:09:10.757Z,99.90
2023-04-25T02:11:43.230Z,99.90
2023-04-25T02:14:26.260Z,99.90
2023-04-25T02:17:03.304Z,99.90
2023-04-25T02:19:32.186Z,99.90
2023-04-25T02:21:59.684Z,99.90
2023-04-25T02:24:29.001Z,99.90
2023-04-25T02:26:57.222Z,99.90
2023-04-25T02:29:24.557Z,99.90
2023-04-25T02:31:51.900Z,99.90
2023-04-25T02:34:19.313Z,99.90
2023-04-25T02:36:46.557Z,99.90
2023-04-25T02:39:13.776Z,99.90
2023-04-25T02:41:41.127Z,99.90
2023-04-25T02:44:08.516Z,99.90
2023-04-25T02:46:39.284Z,99.90
2023-04-25T02:49:07.462Z,99.90
2023-04-25T02:51:35.484Z,99.90
2023-04-25T02:54:03.099Z,99.90
2023-04-25T02:56:32.172Z,99.90
2023-04-25T02:58:59.431Z,99.90
2023-04-25T03:01:27.327Z,99.90
2023-04-25T03:03:55.110Z,99.90
2023-04-25T03:06:22.749Z,99.90
2023-04-25T03:08:49.945Z,99.90
2023-04-25T03:11:17.293Z,99.90
2023-04-25T03:13:44.581Z,99.90
2023-04-25T03:16:12.761Z,99.90
2023-04-25T03:18:39.884Z,99.90
2023-04-25T03:21:07.152Z,99.90
2023-04-25T03:23:35.055Z,99.90
2023-04-25T03:26:02.421Z,99.90
2023-04-25T03:28:29.753Z,99.90
2023-04-25T03:30:58.132Z,99.90
2023-04-25T03:33:25.511Z,99.90
2023-04-25T03:35:53.090Z,99.90
2023-04-25T03:38:20.873Z,99.90
2023-04-25T03:40:48.222Z,99.90
2023-04-25T03:43:21.967Z,99.90
2023-04-25T03:45:58.342Z,99.90
2023-04-25T03:48:27.971Z,99.90
2023-04-25T03:50:55.824Z,99.90
2023-04-25T03:53:23.435Z,99.90
2023-04-25T03:56:28.938Z,99.90
2023-04-25T03:59:03.169Z,99.90
2023-04-25T04:01:31.562Z,99.90
2023-04-25T04:03:59.009Z,99.90
2023-04-25T04:06:27.729Z,99.90
2023-04-25T04:09:04.247Z,99.90
2023-04-25T04:11:35.054Z,99.90
2023-04-25T04:14:02.322Z,99.90
2023-04-25T04:16:31.448Z,99.90
2023-04-25T04:19:00.968Z,99.90
2023-04-25T04:21:28.676Z,99.90
2023-04-25T04:23:56.022Z,99.90
2023-04-25T04:26:24.434Z,99.90
2023-04-25T04:29:06.280Z,99.90
2023-04-25T04:31:41.344Z,99.90
2023-04-25T04:34:08.702Z,99.90
2023-04-25T04:36:36.384Z,99.90
2023-04-25T04:39:04.733Z,99.90
2023-04-25T04:41:44.979Z,99.90
2023-04-25T04:44:16.325Z,99.90
2023-04-25T04:46:50.519Z,99.90
2023-04-25T04:49:47.614Z,99.90
2023-04-25T04:52:44.517Z,99.90
2023-04-25T04:55:31.139Z,99.90
2023-04-25T04:58:18.638Z,99.90
2023-04-25T05:00:56.405Z,99.90
2023-04-25T05:03:34.767Z,99.90
2023-04-25T05:06:22.668Z,99.90
2023-04-25T05:09:13.083Z,99.90
2023-04-25T05:12:02.373Z,99.90
2023-04-25T05:14:49.957Z,99.90
2023-04-25T05:23:26.037Z,99.90
2023-04-25T05:26:04.380Z,99.90
2023-04-25T05:28:58.599Z,99.90
2023-04-25T05:31:55.094Z,99.90
2023-04-25T05:34:22.319Z,99.90
2023-04-25T05:36:57.223Z,99.90
2023-04-25T05:39:25.630Z,99.90
2023-04-25T05:42:09.816Z,99.90
2023-04-25T05:45:01.759Z,99.90
2023-04-25T05:47:55.163Z,99.90
2023-04-25T05:50:39.518Z,99.90
2023-04-25T05:53:33.497Z,99.90
2023-04-25T05:56:02.877Z,99.90
2023-04-25T05:58:31.152Z,99.90
2023-04-25T06:01:00.656Z,99.90
2023-04-25T06:03:28.767Z,99.90
2023-04-25T06:05:58.546Z,99.90
2023-04-25T06:08:26.493Z,99.90
2023-04-25T06:10:53.878Z,99.90
2023-04-25T06:13:21.098Z,99.90
2023-04-25T06:15:48.820Z,99.90
2023-04-25T06:18:16.053Z,99.90
2023-04-25T06:20:43.432Z,99.90
2023-04-25T06:23:10.773Z,99.90
2023-04-25T06:26:03.196Z,99.90
2023-04-25T06:28:34.394Z,99.90
2023-04-25T06:31:02.302Z,99.90
2023-04-25T06:33:30.293Z,99.90
2023-04-25T06:35:58.293Z,99.90
2023-04-25T06:38:29.403Z,99.90
2023-04-25T06:40:58.584Z,99.90
2023-04-25T06:43:29.168Z,99.90
2023-04-25T06:46:17.896Z,99.90
2023-04-25T06:48:48.164Z,99.90
2023-04-25T06:51:16.123Z,99.90
2023-04-25T06:53:45.057Z,99.90
2023-04-25T06:56:22.462Z,99.90
2023-04-25T06:59:01.372Z,99.90
2023-04-25T07:01:31.860Z,99.90
2023-04-25T07:04:01.487Z,99.90
2023-04-25T07:06:32.194Z,99.90
2023-04-25T07:08:59.692Z,99.90
2023-04-25T07:11:27.044Z,99.90
2023-04-25T07:13:54.202Z,99.90
2023-04-25T07:16:21.852Z,99.90
2023-04-25T07:18:49.382Z,99.90
2023-04-25T07:21:16.795Z,99.90
2023-04-25T07:23:46.248Z,99.90
2023-04-25T07:26:18.297Z,99.90
2023-04-25T07:29:05.793Z,99.90
2023-04-25T07:31:33.003Z,99.90
2023-04-25T07:34:02.043Z,99.90
2023-04-25T07:36:29.780Z,99.90
2023-04-25T07:38:58.643Z,99.90
2023-04-25T07:41:27.131Z,99.90
2023-04-25T07:43:54.515Z,99.90
2023-04-25T07:46:22.360Z,99.90
2023-04-25T07:48:49.914Z,99.90
2023-04-25T07:51:17.397Z,99.90
2023-04-25T07:53:44.709Z,99.90
2023-04-25T07:56:15.446Z,99.90
2023-04-25T07:58:45.668Z,99.90
2023-04-25T08:01:15.801Z,99.90
2023-04-25T08:03:58.724Z,99.90
2023-04-25T08:06:45.159Z,99.90
2023-04-25T08:09:20.196Z,99.90
2023-04-25T08:11:50.514Z,99.90
2023-04-25T08:14:22.173Z,99.90
2023-04-25T08:16:50.120Z,99.90
2023-04-25T08:19:18.223Z,99.90
2023-04-25T08:21:47.117Z,99.90
2023-04-25T08:24:19.685Z,99.90
2023-04-25T08:26:46.913Z,99.90
2023-04-25T08:29:17.556Z,99.90
2023-04-25T08:31:45.588Z,99.90
2023-04-25T08:34:14.188Z,99.90
2023-04-25T08:36:48.419Z,99.90
2023-04-25T08:39:35.154Z,99.90
2023-04-25T08:42:22.812Z,99.90
2023-04-25T08:44:51.738Z,99.90
2023-04-25T08:47:23.367Z,99.90
2023-04-25T08:49:56.946Z,99.90
2023-04-25T08:52:26.471Z,99.90
2023-04-25T08:54:56.487Z,99.90
2023-04-25T08:57:24.421Z,99.90
2023-04-25T08:59:56.609Z,99.90
2023-04-25T09:02:26.331Z,99.90
2023-04-25T09:04:55.970Z,99.90
2023-04-25T09:07:23.818Z,99.90
2023-04-25T09:09:51.307Z,99.90
2023-04-25T09:12:35.672Z,99.90
2023-04-25T09:15:05.331Z,99.90
2023-04-25T09:17:58.749Z,99.90
2023-04-25T09:20:31.899Z,99.90
2023-04-25T09:23:04.929Z,99.90
2023-04-25T09:25:40.047Z,99.90
2023-04-25T09:28:09.504Z,99.90
2023-04-25T09:30:37.860Z,99.90
2023-04-25T09:33:12.947Z,99.90
2023-04-25T09:35:46.569Z,99.90
2023-04-25T09:38:25.326Z,99.90
2023-04-25T09:40:58.010Z,99.90
2023-04-25T09:43:46.097Z,99.90
2023-04-25T09:46:13.805Z,99.90
2023-04-25T09:48:52.338Z,99.90
2023-04-25T09:51:28.732Z,99.90
2023-04-25T09:53:58.024Z,99.90
2023-04-25T09:56:42.341Z,99.90
2023-04-25T09:59:12.557Z,99.90
2023-04-25T10:01:42.975Z,99.90
2023-04-25T10:04:23.981Z,99.90
2023-04-25T10:07:15.382Z,99.90
2023-04-25T10:09:48.365Z,99.90
2023-04-25T10:12:15.900Z,99.90
2023-04-25T10:14:43.816Z,99.90
2023-04-25T10:17:12.573Z,99.90
2023-04-25T10:19:40.836Z,99.90
2023-04-25T10:22:34.071Z,99.90
2023-04-25T10:25:05.072Z,99.90
2023-04-25T10:27:33.470Z,99.90
2023-04-25T10:30:05.575Z,99.90
2023-04-25T10:32:34.833Z,99.90
2023-04-25T10:35:28.794Z,99.90
2023-04-25T10:37:59.944Z,99.90
2023-04-25T10:40:28.180Z,99.90
2023-04-25T10:42:56.374Z,99.90
2023-04-25T10:45:23.992Z,99.90
2023-04-25T10:47:51.784Z,99.90
2023-04-25T10:50:19.910Z,99.90
2023-04-25T10:52:47.388Z,99.90
2023-04-25T10:55:17.052Z,99.90
2023-04-25T10:57:50.960Z,99.90
2023-04-25T11:00:20.887Z,99.90
2023-04-25T11:02:59.516Z,99.90
2023-04-25T11:08:45.059Z,99.90
2023-04-25T11:11:12.339Z,99.90
2023-04-25T11:13:39.506Z,99.90
2023-04-25T11:16:13.215Z,99.90
2023-04-25T11:18:45.296Z,99.90
2023-04-25T11:21:14.524Z,99.90
2023-04-25T11:23:41.768Z,99.90
2023-04-25T11:26:09.138Z,99.90
2023-04-25T11:28:36.674Z,99.90
2023-04-25T11:31:05.733Z,99.90
2023-04-25T11:33:33.196Z,99.90
2023-04-25T11:36:05.158Z,99.90
2023-04-25T11:38:35.268Z,99.90
2023-04-25T11:41:03.464Z,99.90
2023-04-25T11:43:30.978Z,99.90
2023-04-25T11:46:01.801Z,99.90
2023-04-25T11:48:37.503Z,99.90
2023-04-25T11:51:05.606Z,99.90
2023-04-25T11:53:33.190Z,99.90
2023-04-25T11:56:00.961Z,99.90
2023-04-25T11:58:29.098Z,99.90
2023-04-25T12:00:59.674Z,99.90
2023-04-25T12:03:32.407Z,99.90
2023-04-25T12:06:05.401Z,99.90
2023-04-25T12:08:36.836Z,99.90
2023-04-25T12:11:09.276Z,99.90
2023-04-25T12:13:54.375Z,99.90
2023-04-25T12:16:21.742Z,99.90
2023-04-25T12:18:49.337Z,99.90
2023-04-25T12:21:16.681Z,99.90
2023-04-25T12:23:43.996Z,99.90
2023-04-25T12:26:11.273Z,99.90
2023-04-25T12:28:38.469Z,99.90
2023-04-25T12:31:07.236Z,99.90
2023-04-25T12:33:38.938Z,98.80
2023-04-25T12:36:10.312Z,96.60
2023-04-25T12:38:43.190Z,95.70
2023-04-25T12:41:10.672Z,94.60
2023-04-25T12:43:37.909Z,94.10
2023-04-25T12:46:05.360Z,93.50
2023-04-25T12:48:32.639Z,92.60
2023-04-25T12:51:00.258Z,93.70
2023-04-25T12:53:27.437Z,94.20
2023-04-25T12:58:24.694Z,95.80
2023-04-25T13:00:51.927Z,96.00
2023-04-25T13:03:19.879Z,96.50
2023-04-25T13:05:47.383Z,96.60
2023-04-25T13:08:14.618Z,97.00
2023-04-25T13:10:42.089Z,96.90
2023-04-25T13:13:09.673Z,95.90
2023-04-25T13:15:37.644Z,96.00
2023-04-25T13:18:08.772Z,96.10
2023-04-25T13:20:36.188Z,95.80
2023-04-25T13:23:03.505Z,96.10
2023-04-25T13:25:31.014Z,96.60
2023-04-25T13:27:58.236Z,92.50
2023-04-25T13:30:25.534Z,72.50
2023-04-25T13:32:53.817Z,56.20
2023-04-25T13:35:21.088Z,50.80
2023-04-25T13:37:48.339Z,50.60
2023-04-25T13:40:15.608Z,50.60
2023-04-25T13:42:45.531Z,48.50
2023-04-25T13:45:13.045Z,51.00
2023-04-25T13:47:40.676Z,53.90
2023-04-25T13:50:19.492Z,53.90
2023-04-25T13:52:50.207Z,55.00
2023-04-25T13:55:25.283Z,56.20
2023-04-25T13:57:53.873Z,57.90
2023-04-25T14:00:22.460Z,57.60
2023-04-25T14:02:51.032Z,56.30
2023-04-25T14:05:18.640Z,56.10
2023-04-25T14:07:46.011Z,56.20
2023-04-25T14:10:13.493Z,54.90
2023-04-25T14:12:41.290Z,54.50
2023-04-25T14:15:08.804Z,52.70
2023-04-25T14:17:36.258Z,54.10
2023-04-25T14:20:06.649Z,53.90
2023-04-25T14:22:34.103Z,55.50
2023-04-25T14:25:01.447Z,55.70
2023-04-25T14:27:31.064Z,57.10
2023-04-25T14:29:58.308Z,57.50
2023-04-25T14:32:25.607Z,55.40
2023-04-25T14:34:52.992Z,53.70
2023-04-25T14:37:20.348Z,53.00
2023-04-25T14:39:47.529Z,51.10
2023-04-25T14:42:14.821Z,50.30
2023-04-25T14:44:42.067Z,51.30
2023-04-25T14:47:09.357Z,51.60
2023-04-25T14:49:36.568Z,50.00
2023-04-25T14:52:04.324Z,49.40
2023-04-25T14:54:31.548Z,48.50
2023-04-25T14:56:58.826Z,48.40
2023-04-25T14:59:26.618Z,48.30
2023-04-25T15:01:54.244Z,47.80
2023-04-25T15:04:24.380Z,48.10
2023-04-25T15:06:52.209Z,49.20
2023-04-25T15:09:20.474Z,51.40
2023-04-25T15:11:47.712Z,52.00
2023-04-25T15:14:15.211Z,52.80
2023-04-25T15:16:43.157Z,54.50
2023-04-25T15:19:10.448Z,55.10
2023-04-25T15:21:37.653Z,55.40
2023-04-25T15:24:05.119Z,53.60
2023-04-25T15:26:32.457Z,52.70
2023-04-25T15:28:59.651Z,53.60
2023-04-25T15:31:27.023Z,55.10
2023-04-25T15:33:54.394Z,55.80
2023-04-25T15:36:22.588Z,54.00
2023-04-25T15:38:49.762Z,52.70
2023-04-25T15:41:18.059Z,51.40
2023-04-25T15:43:47.654Z,51.50
2023-04-25T15:46:15.089Z,50.50
2023-04-25T15:48:42.547Z,50.40
2023-04-25T15:51:10.717Z,51.30
2023-04-25T15:53:38.061Z,51.20
2023-04-25T15:56:05.819Z,51.90
2023-04-25T15:58:33.217Z,51.80
2023-04-25T16:01:00.606Z,51.60
2023-04-25T16:03:28.416Z,52.70
2023-04-25T16:05:55.777Z,51.70
2023-04-25T16:08:25.014Z,52.50
2023-04-25T16:10:52.847Z,52.40
2023-04-25T16:13:20.064Z,53.50
2023-04-25T16:15:47.267Z,54.10
2023-04-25T16:18:14.714Z,55.00
2023-04-25T16:20:42.245Z,55.00
2023-04-25T16:23:09.647Z,55.40
2023-04-25T16:25:38.025Z,56.20
2023-04-25T16:28:05.585Z,57.00
2023-04-25T16:30:32.838Z,57.70
2023-04-25T16:33:00.135Z,58.20
2023-04-25T16:35:30.554Z,58.10
2023-04-25T16:37:58.334Z,59.00
2023-04-25T16:40:25.514Z,58.80
2023-04-25T16:42:52.775Z,58.90
2023-04-25T16:45:21.209Z,59.30
2023-04-25T16:47:50.998Z,59.90
2023-04-25T16:50:19.715Z,60.40
2023-04-25T16:52:46.945Z,61.50
2023-04-25T16:55:14.199Z,62.20
2023-04-25T16:57:41.675Z,63.10
2023-04-25T17:00:09.910Z,63.40
2023-04-25T17:02:38.069Z,63.30
2023-04-25T17:05:05.853Z,64.20
2023-04-25T17:07:33.177Z,64.40
2023-04-25T17:10:00.627Z,64.80
2023-04-25T17:12:28.001Z,65.60
2023-04-25T17:14:55.270Z,66.20
2023-04-25T17:17:22.518Z,67.40
2023-04-25T17:19:49.860Z,68.80
2023-04-25T17:22:17.219Z,70.40
2023-04-25T17:24:44.422Z,73.40
2023-04-25T17:27:12.303Z,75.60
2023-04-25T17:29:39.495Z,77.90
2023-04-25T17:32:06.748Z,79.80
2023-04-25T17:34:34.292Z,81.10
2023-04-25T17:37:01.437Z,83.00
2023-04-25T17:39:28.622Z,85.70
2023-04-25T17:41:55.741Z,87.30
2023-04-25T17:44:22.900Z,88.60
2023-04-25T17:46:51.299Z,90.10
2023-04-25T17:49:18.668Z,90.60
2023-04-25T17:51:46.172Z,91.30
2023-04-25T17:54:13.531Z,91.90
2023-04-25T17:56:40.683Z,92.30
2023-04-25T17:59:07.904Z,92.60
2023-04-25T18:01:36.044Z,93.10
2023-04-25T18:04:04.245Z,93.60
2023-04-25T18:06:35.122Z,93.90
2023-04-25T18:09:03.088Z,94.10
2023-04-25T18:11:30.906Z,94.30
2023-04-25T18:13:58.310Z,94.40
2023-04-25T18:16:29.572Z,94.50
2023-04-25T18:19:05.303Z,94.30
2023-04-25T18:21:33.065Z,94.60
2023-04-25T18:24:01.381Z,94.90
2023-04-25T18:26:30.812Z,94.80
2023-04-25T18:28:58.699Z,95.00
2023-04-25T18:31:26.634Z,95.10
2023-04-25T18:33:54.275Z,95.90
2023-04-25T18:36:24.460Z,96.40
2023-04-25T18:38:56.181Z,97.00
2023-04-25T18:43:56.236Z,98.30
2023-04-25T18:46:27.021Z,98.70
2023-04-25T18:48:55.084Z,98.90
2023-04-25T18:51:30.512Z,99.00
2023-04-25T18:53:59.811Z,99.50
2023-04-25T18:56:28.125Z,99.90
2023-04-25T18:58:56.174Z,99.70
2023-04-25T19:01:25.643Z,99.80
2023-04-25T19:03:56.964Z,99.90
2023-04-25T19:06:29.588Z,99.90
2023-04-25T19:08:57.723Z,99.90
2023-04-25T19:11:25.158Z,99.90
2023-04-25T19:13:53.023Z,99.90
2023-04-25T19:16:22.401Z,99.90
2023-04-25T19:18:52.405Z,99.90
2023-04-25T19:21:20.498Z,99.90
2023-04-25T19:23:47.800Z,99.90
2023-04-25T19:26:14.954Z,99.90
2023-04-25T19:28:44.889Z,99.90
2023-04-25T19:31:22.287Z,99.90
2023-04-25T19:33:49.774Z,99.90
2023-04-25T19:36:17.493Z,99.90
2023-04-25T19:38:45.963Z,99.90
2023-04-25T19:41:13.126Z,99.90
2023-04-25T19:43:40.496Z,99.90
2023-04-25T19:46:07.996Z,99.90
2023-04-25T19:48:35.267Z,99.90
2023-04-25T19:51:02.757Z,99.90
2023-04-25T19:53:30.009Z,99.90
2023-04-25T19:55:57.575Z,99.90
2023-04-25T19:58:24.884Z,99.90
2023-04-25T20:00:52.450Z,99.90
2023-04-25T20:03:19.681Z,99.90
2023-04-25T20:05:47.132Z,99.90
2023-04-25T20:08:14.359Z,99.90
2023-04-25T20:10:42.580Z,99.90
2023-04-25T20:13:10.689Z,99.90
2023-04-25T20:15:38.630Z,99.90
2023-04-25T20:18:05.858Z,99.90
2023-04-25T20:20:33.410Z,99.90
2023-04-25T20:23:00.930Z,99.90
2023-04-25T20:25:28.278Z,99.90
2023-04-25T20:27:56.533Z,99.90
2023-04-25T20:30:23.814Z,99.90
2023-04-25T20:32:51.185Z,99.90
2023-04-25T20:35:18.597Z,99.90
2023-04-25T20:37:46.594Z,99.90
2023-04-25T20:40:13.836Z,99.90
2023-04-25T20:42:41.048Z,99.90
2023-04-25T20:45:13.425Z,99.90
2023-04-25T20:47:41.570Z,99.90
2023-04-25T20:50:09.452Z,99.90
2023-04-25T20:52:38.682Z,99.90
2023-04-25T20:55:07.023Z,99.90
2023-04-25T20:57:34.314Z,99.90
2023-04-25T21:00:01.528Z,99.90
2023-04-25T21:02:32.481Z,99.90
2023-04-25T21:04:59.690Z,99.90
2023-04-25T21:07:27.018Z,99.90
2023-04-25T21:09:54.361Z,99.90
2023-04-25T21:12:21.659Z,99.90
2023-04-25T21:14:48.799Z,99.90
2023-04-25T21:17:16.107Z,99.90
2023-04-25T21:19:43.399Z,99.90
2023-04-25T21:22:10.683Z,99.90
2023-04-25T21:24:37.804Z,99.90
2023-04-25T21:27:05.097Z,99.90
2023-04-25T21:29:34.593Z,99.90
2023-04-25T21:32:04.429Z,99.90
2023-04-25T21:34:32.007Z,99.90
2023-04-25T21:36:59.221Z,99.90
2023-04-25T21:39:26.582Z,99.90
2023-04-25T21:41:53.818Z,99.90
2023-04-25T21:44:21.336Z,99.90
2023-04-25T21:46:48.959Z,99.90
2023-04-25T21:49:16.619Z,99.90
2023-04-25T21:51:44.510Z,99.90
2023-04-25T21:54:12.356Z,99.90
2023-04-25T21:56:39.609Z,99.90
2023-04-25T21:59:06.722Z,99.90
2023-04-25T22:01:34.374Z,99.90
2023-04-25T22:04:01.860Z,99.90
2023-04-25T22:06:29.480Z,99.90
2023-04-25T22:08:57.424Z,99.90
2023-04-25T22:11:24.599Z,99.90
2023-04-25T22:13:52.200Z,99.90
2023-04-25T22:16:19.644Z,99.90
2023-04-25T22:18:47.907Z,99.90
2023-04-25T22:21:15.327Z,99.90
2023-04-25T22:23:42.529Z,99.90
2023-04-25T22:26:10.017Z,99.90
2023-04-25T22:28:37.527Z,99.90
2023-04-25T22:31:04.912Z,99.90
2023-04-25T22:33:33.706Z,99.90
2023-04-25T22:36:02.234Z,99.90
2023-04-25T22:38:30.815Z,99.90
2023-04-25T22:40:58.042Z,99.90
2023-04-25T22:43:26.184Z,99.90
2023-04-25T22:45:53.529Z,99.90
2023-04-25T22:48:20.792Z,99.90
2023-04-25T22:50:47.893Z,99.90
2023-04-25T22:53:15.060Z,99.90
2023-04-25T22:55:44.416Z,99.90
2023-04-25T22:58:11.669Z,99.90
2023-04-25T23:00:39.004Z,99.90
2023-04-25T23:03:06.904Z,99.90
2023-04-25T23:05:34.393Z,99.90
2023-04-25T23:08:01.679Z,99.90
2023-04-25T23:10:28.974Z,99.90
2023-04-25T23:13:00.392Z,99.90
2023-04-25T23:15:31.059Z,99.90
2023-04-25T23:17:59.103Z,99.90
2023-04-25T23:20:26.766Z,99.90
2023-04-25T23:22:55.054Z,99.90
2023-04-25T23:25:22.436Z,99.90
2023-04-25T23:27:50.263Z,99.90
2023-04-25T23:30:17.874Z,99.90
2023-04-25T23:32:45.186Z,99.90
2023-04-25T23:35:12.404Z,99.90
2023-04-25T23:37:43.460Z,99.90
2023-04-25T23:40:12.447Z,99.90
2023-04-25T23:42:41.322Z,99.90
2023-04-25T23:45:09.412Z,99.90
2023-04-25T23:47:37.514Z,99.90
2023-04-25T23:50:06.082Z,99.90
2023-04-25T23:52:33.280Z,99.90
2023-04-25T23:55:00.443Z,99.90
2023-04-25T23:57:27.730Z,99.90
2023-04-25T23:59:54.924Z,99.90
